Dahlonega, Iowa
Current Conditions -  °F | °C
As of 9:53 PM on Sunday 23 Nov 2014 (Local Time) from KOTM Reporting Station
Light Rain Light Rain  
Wind Chill: 29°   Ceiling: 1200
Heat Index: 40°   Visibility: 9mi
Dew Point: 37°   Wind: 28mph
Humidity: 89%   Direction: 320°NW
Pressure: 29.3"   Gusts: 38mph
Location:  41.0803°N, 92.3054°W
Report Text: KOTM 240353Z AUTO 32024G33KT 9SM -RA OVC012 04/03 A2930 RMK AO2 PK WND 32037/0326 RAB20 SLP925 P0000 T00440028
Loading
Personal Weather Stations






























Interactive Weather Map New forecast layout! Learn more

10-Day Weather Forecast

Advertisements
Track Severe Weather on mobile